createdAt,value
2023-04-19T00:01:18.472Z,7.37
2023-04-19T00:03:45.712Z,7.40
2023-04-19T00:06:15.239Z,7.39
2023-04-19T00:08:42.456Z,7.34
2023-04-19T00:11:10.452Z,7.33
2023-04-19T00:13:37.131Z,7.41
2023-04-19T00:16:04.067Z,7.33
2023-04-19T00:18:30.779Z,7.41
2023-04-19T00:20:58.136Z,7.43
2023-04-19T00:23:25.755Z,7.35
2023-04-19T00:25:52.480Z,7.35
2023-04-19T00:28:19.156Z,7.37
2023-04-19T00:30:45.999Z,7.34
2023-04-19T00:33:13.177Z,7.30
2023-04-19T00:35:42.176Z,7.32
2023-04-19T00:38:08.964Z,7.28
2023-04-19T00:40:37.758Z,7.21
2023-04-19T00:43:05.332Z,7.33
2023-04-19T00:45:36.560Z,7.34
2023-04-19T00:48:03.477Z,7.20
2023-04-19T00:50:30.867Z,7.33
2023-04-19T00:52:57.871Z,7.32
2023-04-19T00:55:25.385Z,7.22
2023-04-19T00:57:52.350Z,7.25
2023-04-19T01:00:20.107Z,7.28
2023-04-19T01:02:48.119Z,7.30
2023-04-19T01:05:15.441Z,7.37
2023-04-19T01:07:43.449Z,7.34
2023-04-19T01:10:14.946Z,7.32
2023-04-19T01:12:41.785Z,7.29
2023-04-19T01:15:11.069Z,7.26
2023-04-19T01:17:37.988Z,7.25
2023-04-19T01:20:08.220Z,7.22
2023-04-19T01:22:37.756Z,7.19
2023-04-19T01:25:05.363Z,7.21
2023-04-19T01:27:32.081Z,7.25
2023-04-19T01:29:58.847Z,7.15
2023-04-19T01:32:27.218Z,7.24
2023-04-19T01:34:56.037Z,7.23
2023-04-19T01:37:23.124Z,7.20
2023-04-19T01:39:49.884Z,7.24
2023-04-19T01:42:16.837Z,7.16
2023-04-19T01:44:43.564Z,7.15
2023-04-19T01:47:10.601Z,7.16
2023-04-19T01:49:37.497Z,7.16
2023-04-19T01:52:04.304Z,7.11
2023-04-19T01:54:30.982Z,7.14
2023-04-19T01:56:57.720Z,7.13
2023-04-19T01:59:24.521Z,7.14
2023-04-19T02:01:51.379Z,7.16
2023-04-19T02:04:20.800Z,7.13
2023-04-19T02:06:47.592Z,7.07
2023-04-19T02:09:14.633Z,6.98
2023-04-19T02:11:42.341Z,7.06
2023-04-19T02:14:09.009Z,7.11
2023-04-19T02:16:36.368Z,7.08
2023-04-19T02:19:04.036Z,7.12
2023-04-19T02:21:31.861Z,7.00
2023-04-19T02:23:58.639Z,6.98
2023-04-19T02:26:26.037Z,6.95
2023-04-19T02:28:53.294Z,7.10
2023-04-19T02:31:20.163Z,7.11
2023-04-19T02:33:46.946Z,7.09
2023-04-19T02:36:13.726Z,7.05
2023-04-19T02:38:40.811Z,6.98
2023-04-19T02:41:07.659Z,7.08
2023-04-19T02:43:34.427Z,7.04
2023-04-19T02:46:01.750Z,7.01
2023-04-19T02:48:28.559Z,6.97
2023-04-19T02:50:55.500Z,6.97
2023-04-19T02:53:22.956Z,6.98
2023-04-19T02:55:50.845Z,6.97
2023-04-19T02:58:19.850Z,6.94
2023-04-19T03:00:58.441Z,6.90
2023-04-19T03:03:25.527Z,6.81
2023-04-19T03:05:53.044Z,6.73
2023-04-19T03:08:19.840Z,6.79
2023-04-19T03:10:46.535Z,6.74
2023-04-19T03:13:13.869Z,6.78
2023-04-19T03:15:40.673Z,6.72
2023-04-19T03:18:08.100Z,6.79
2023-04-19T03:20:37.310Z,6.81
2023-04-19T03:23:05.531Z,6.84
2023-04-19T03:25:33.429Z,6.75
2023-04-19T03:28:13.534Z,6.66
2023-04-19T03:30:58.943Z,6.63
2023-04-19T03:33:25.788Z,6.65
2023-04-19T03:35:54.471Z,6.66
2023-04-19T03:38:21.625Z,6.63
2023-04-19T03:40:48.672Z,6.60
2023-04-19T03:43:16.941Z,6.68
2023-04-19T03:45:43.993Z,6.63
2023-04-19T03:48:11.577Z,6.62
2023-04-19T03:50:38.830Z,6.52
2023-04-19T03:53:05.951Z,6.61
2023-04-19T03:55:32.907Z,6.60
2023-04-19T03:58:01.598Z,6.61
2023-04-19T04:00:37.175Z,6.66
2023-04-19T04:03:04.050Z,6.66
2023-04-19T04:05:31.222Z,6.57
2023-04-19T04:07:59.791Z,6.60
2023-04-19T04:10:26.817Z,6.63
2023-04-19T04:12:53.547Z,6.60
2023-04-19T04:15:27.078Z,6.45
2023-04-19T04:17:54.470Z,6.49
2023-04-19T04:20:21.486Z,6.46
2023-04-19T04:22:50.608Z,6.47
2023-04-19T04:25:21.759Z,6.45
2023-04-19T04:27:53.153Z,6.48
2023-04-19T04:30:24.293Z,6.49
2023-04-19T04:32:52.504Z,6.53
2023-04-19T04:35:19.345Z,6.46
2023-04-19T04:37:56.629Z,6.56
2023-04-19T04:40:23.466Z,6.42
2023-04-19T04:42:52.987Z,6.44
2023-04-19T04:45:20.218Z,6.48
2023-04-19T04:47:49.985Z,6.47
2023-04-19T04:50:16.812Z,6.48
2023-04-19T04:52:43.942Z,6.47
2023-04-19T04:55:16.280Z,6.41
2023-04-19T04:57:44.254Z,6.47
2023-04-19T05:00:37.216Z,6.50
2023-04-19T05:03:07.075Z,6.46
2023-04-19T05:05:38.700Z,6.47
2023-04-19T05:08:05.463Z,6.35
2023-04-19T05:10:32.242Z,6.37
2023-04-19T05:13:01.055Z,6.33
2023-04-19T05:15:29.139Z,6.30
2023-04-19T05:17:56.090Z,6.36
2023-04-19T05:20:22.892Z,6.44
2023-04-19T05:22:58.800Z,6.40
2023-04-19T05:25:25.531Z,6.40
2023-04-19T05:27:53.311Z,6.35
2023-04-19T05:30:20.298Z,6.46
2023-04-19T05:32:47.332Z,6.48
2023-04-19T05:35:14.965Z,6.52
2023-04-19T05:37:41.774Z,6.44
2023-04-19T05:40:12.013Z,6.40
2023-04-19T05:42:38.779Z,6.44
2023-04-19T05:45:07.331Z,6.46
2023-04-19T05:47:34.238Z,6.46
2023-04-19T05:50:24.020Z,6.47
2023-04-19T05:53:11.004Z,6.57
2023-04-19T05:55:37.762Z,6.49
2023-04-19T05:58:04.525Z,6.44
2023-04-19T06:00:31.275Z,6.50
2023-04-19T06:03:07.560Z,6.57
2023-04-19T06:05:34.787Z,6.48
2023-04-19T06:08:02.900Z,6.54
2023-04-19T06:10:40.345Z,6.54
2023-04-19T06:13:16.265Z,6.62
2023-04-19T06:15:43.239Z,6.58
2023-04-19T06:18:11.132Z,6.58
2023-04-19T06:20:47.137Z,6.77
2023-04-19T06:23:15.143Z,6.63
2023-04-19T06:25:41.988Z,6.74
2023-04-19T06:28:08.783Z,6.84
2023-04-19T06:30:35.713Z,6.76
2023-04-19T06:33:02.597Z,6.82
2023-04-19T06:35:29.257Z,6.85
2023-04-19T06:37:56.055Z,6.86
2023-04-19T06:40:23.059Z,6.92
2023-04-19T06:42:49.874Z,6.83
2023-04-19T06:45:16.742Z,6.97
2023-04-19T06:47:43.408Z,6.88
2023-04-19T06:50:11.300Z,6.92
2023-04-19T06:52:38.852Z,6.90
2023-04-19T06:55:07.194Z,7.09
2023-04-19T06:57:33.907Z,7.22
2023-04-19T07:00:00.907Z,7.22
2023-04-19T07:02:27.782Z,7.36
2023-04-19T07:04:54.512Z,7.41
2023-04-19T07:07:21.254Z,7.40
2023-04-19T07:09:47.942Z,7.48
2023-04-19T07:12:14.611Z,7.45
2023-04-19T07:14:41.293Z,7.54
2023-04-19T07:17:07.954Z,7.63
2023-04-19T07:19:35.682Z,7.76
2023-04-19T07:22:03.315Z,7.85
2023-04-19T07:24:30.489Z,7.87
2023-04-19T07:26:57.575Z,7.86
2023-04-19T07:29:24.279Z,7.81
2023-04-19T07:31:51.062Z,7.86
2023-04-19T07:34:18.199Z,7.91
2023-04-19T07:36:45.079Z,7.97
2023-04-19T07:39:12.016Z,8.17
2023-04-19T07:41:38.703Z,8.34
2023-04-19T07:44:05.547Z,8.46
2023-04-19T07:46:32.238Z,8.49
2023-04-19T07:48:59.009Z,8.60
2023-04-19T07:51:26.502Z,8.69
2023-04-19T07:53:53.182Z,8.61
2023-04-19T07:56:20.288Z,8.69
2023-04-19T07:58:56.435Z,8.47
2023-04-19T08:01:32.894Z,8.48
2023-04-19T08:04:00.091Z,8.45
2023-04-19T08:06:27.123Z,8.41
2023-04-19T08:08:53.823Z,8.48
2023-04-19T08:11:20.516Z,8.44
2023-04-19T08:14:04.081Z,8.60
2023-04-19T08:17:11.388Z,9.02
2023-04-19T08:19:20.090Z,10.04
2023-04-19T08:21:46.864Z,10.76
2023-04-19T08:24:14.096Z,11.26
2023-04-19T08:26:40.970Z,11.75
2023-04-19T08:29:07.697Z,11.72
2023-04-19T08:31:34.422Z,11.28
2023-04-19T08:34:02.772Z,10.93
2023-04-19T08:36:39.107Z,10.62
2023-04-19T08:39:12.553Z,10.41
2023-04-19T08:41:59.355Z,10.27
2023-04-19T08:44:36.662Z,10.20
2023-04-19T08:47:05.739Z,10.07
2023-04-19T08:49:36.955Z,9.83
2023-04-19T08:52:04.580Z,9.76
2023-04-19T08:54:31.603Z,9.63
2023-04-19T08:57:00.270Z,9.62
2023-04-19T08:59:27.017Z,9.57
2023-04-19T09:01:55.883Z,9.86
2023-04-19T09:04:36.242Z,10.16
2023-04-19T09:07:04.381Z,10.48
2023-04-19T09:09:37.066Z,10.77
2023-04-19T09:12:16.716Z,11.26
2023-04-19T09:14:59.751Z,11.66
2023-04-19T09:17:28.453Z,11.43
2023-04-19T09:19:55.220Z,11.46
2023-04-19T09:22:21.954Z,11.51
2023-04-19T09:27:33.357Z,11.48
2023-04-19T09:30:01.967Z,11.59
2023-04-19T09:32:30.100Z,11.45
2023-04-19T09:35:00.372Z,11.55
2023-04-19T09:39:57.061Z,11.34
2023-04-19T09:42:47.408Z,11.40
2023-04-19T09:47:40.864Z,11.18
2023-04-19T09:50:22.782Z,10.97
2023-04-19T09:52:52.720Z,10.80
2023-04-19T09:57:49.620Z,10.91
2023-04-19T10:00:16.509Z,10.83
2023-04-19T10:02:45.321Z,10.86
2023-04-19T10:05:20.308Z,10.86
2023-04-19T10:07:49.675Z,10.67
2023-04-19T10:10:22.483Z,10.54
2023-04-19T10:15:26.814Z,10.39
2023-04-19T10:17:56.442Z,10.41
2023-04-19T10:20:26.997Z,10.37
2023-04-19T10:22:54.320Z,10.14
2023-04-19T10:25:28.686Z,10.20
2023-04-19T10:27:55.522Z,10.05
2023-04-19T10:30:23.335Z,9.93
2023-04-19T10:32:56.360Z,9.85
2023-04-19T10:35:29.561Z,9.90
2023-04-19T10:38:06.725Z,9.96
2023-04-19T10:41:01.024Z,10.02
2023-04-19T10:43:33.892Z,10.05
2023-04-19T10:46:06.400Z,10.15
2023-04-19T10:48:35.260Z,10.11
2023-04-19T10:51:03.949Z,10.12
2023-04-19T10:53:50.948Z,10.04
2023-04-19T10:56:33.967Z,9.99
2023-04-19T10:59:11.273Z,10.02
2023-04-19T11:01:41.052Z,10.10
2023-04-19T11:04:09.997Z,10.15
2023-04-19T11:06:38.423Z,10.17
2023-04-19T11:09:05.809Z,10.13
2023-04-19T11:11:36.342Z,10.09
2023-04-19T11:14:04.384Z,9.95
2023-04-19T11:16:45.201Z,9.95
2023-04-19T11:19:16.926Z,9.96
2023-04-19T11:21:46.255Z,9.87
2023-04-19T11:24:13.279Z,9.90
2023-04-19T11:26:42.900Z,9.78
2023-04-19T11:29:10.313Z,9.73
2023-04-19T11:31:37.032Z,9.57
2023-04-19T11:34:03.807Z,9.60
2023-04-19T11:36:32.114Z,9.40
2023-04-19T11:38:58.887Z,9.37
2023-04-19T11:41:25.504Z,9.14
2023-04-19T11:43:52.149Z,8.99
2023-04-19T11:46:18.867Z,8.84
2023-04-19T11:48:53.455Z,8.87
2023-04-19T11:51:20.849Z,8.82
2023-04-19T11:53:47.683Z,8.84
2023-04-19T11:56:15.553Z,8.83
2023-04-19T11:58:45.389Z,8.85
2023-04-19T12:01:14.443Z,8.80
2023-04-19T12:03:48.881Z,8.77
2023-04-19T12:06:18.664Z,8.66
2023-04-19T12:08:47.337Z,8.66
2023-04-19T12:11:15.352Z,8.62
2023-04-19T12:13:44.337Z,8.64
2023-04-19T12:16:12.079Z,8.65
2023-04-19T12:18:48.885Z,8.69
2023-04-19T12:21:29.079Z,8.73
2023-04-19T12:24:00.567Z,8.82
2023-04-19T12:26:30.622Z,8.90
2023-04-19T12:28:58.702Z,8.93
2023-04-19T12:31:26.129Z,8.79
2023-04-19T12:33:53.397Z,8.85
2023-04-19T12:36:20.326Z,8.76
2023-04-19T12:38:47.034Z,8.69
2023-04-19T12:41:13.660Z,8.69
2023-04-19T12:43:40.468Z,8.67
2023-04-19T12:46:07.161Z,8.55
2023-04-19T12:48:34.018Z,8.35
2023-04-19T12:51:00.802Z,8.19
2023-04-19T12:53:27.495Z,8.10
2023-04-19T12:55:54.123Z,8.17
2023-04-19T12:58:21.442Z,8.09
2023-04-19T13:00:49.271Z,8.05
2023-04-19T13:03:16.473Z,8.17
2023-04-19T13:05:43.312Z,8.10
2023-04-19T13:08:10.007Z,7.96
2023-04-19T13:10:36.640Z,7.85
2023-04-19T13:13:04.017Z,7.76
2023-04-19T13:15:31.154Z,7.73
2023-04-19T13:17:57.899Z,7.64
2023-04-19T13:20:24.530Z,7.56
2023-04-19T13:22:51.216Z,7.56
2023-04-19T13:25:17.833Z,7.46
2023-04-19T13:27:44.573Z,7.52
2023-04-19T13:30:11.625Z,7.50
2023-04-19T13:32:38.345Z,7.52
2023-04-19T13:35:05.550Z,7.56
2023-04-19T13:37:32.215Z,7.48
2023-04-19T13:40:10.601Z,7.55
2023-04-19T13:42:44.449Z,7.58
2023-04-19T13:45:11.495Z,7.51
2023-04-19T13:47:38.141Z,7.44
2023-04-19T13:50:05.119Z,7.42
2023-04-19T13:52:31.856Z,7.41
2023-04-19T13:54:58.523Z,7.27
2023-04-19T13:57:25.435Z,7.25
2023-04-19T13:59:52.151Z,7.14
2023-04-19T14:02:18.925Z,7.12
2023-04-19T14:04:45.667Z,7.15
2023-04-19T14:07:12.405Z,7.10
2023-04-19T14:09:39.151Z,6.99
2023-04-19T14:12:07.138Z,7.05
2023-04-19T14:14:33.771Z,7.08
2023-04-19T14:17:00.378Z,7.11
2023-04-19T14:19:27.002Z,7.12
2023-04-19T14:21:53.687Z,7.12
2023-04-19T14:24:20.356Z,7.21
2023-04-19T14:26:52.085Z,7.14
2023-04-19T14:29:23.902Z,7.19
2023-04-19T14:31:50.593Z,7.08
2023-04-19T14:34:17.286Z,7.11
2023-04-19T14:36:43.966Z,7.21
2023-04-19T14:39:10.628Z,7.13
2023-04-19T14:41:37.294Z,7.19
2023-04-19T14:44:03.953Z,7.23
2023-04-19T14:46:30.650Z,7.23
2023-04-19T14:49:03.332Z,7.28
2023-04-19T14:51:31.700Z,7.25
2023-04-19T14:54:01.220Z,7.27
2023-04-19T14:56:28.572Z,7.29
2023-04-19T14:58:55.425Z,7.34
2023-04-19T15:01:23.402Z,7.37
2023-04-19T15:03:50.436Z,7.41
2023-04-19T15:06:17.233Z,7.41
2023-04-19T15:08:43.978Z,7.45
2023-04-19T15:11:10.598Z,7.32
2023-04-19T15:13:37.241Z,7.42
2023-04-19T15:16:04.180Z,7.33
2023-04-19T15:18:30.928Z,7.33
2023-04-19T15:20:57.624Z,7.48
2023-04-19T15:23:25.707Z,7.59
2023-04-19T15:25:52.714Z,7.58
2023-04-19T15:28:19.447Z,7.63
2023-04-19T15:30:56.767Z,7.47
2023-04-19T15:33:23.390Z,7.60
2023-04-19T15:35:57.244Z,7.69
2023-04-19T15:38:26.884Z,7.75
2023-04-19T15:40:57.773Z,7.82
2023-04-19T15:43:25.324Z,7.81
2023-04-19T15:45:52.640Z,7.90
2023-04-19T15:48:20.663Z,7.98
2023-04-19T15:50:47.448Z,8.01
2023-04-19T15:53:14.377Z,8.06
2023-04-19T15:55:41.544Z,8.05
2023-04-19T15:58:08.281Z,8.16
2023-04-19T16:00:35.103Z,8.23
2023-04-19T16:03:02.067Z,8.27
2023-04-19T16:05:29.196Z,8.26
2023-04-19T16:08:07.016Z,8.32
2023-04-19T16:10:34.391Z,8.28
2023-04-19T16:13:01.550Z,8.32
2023-04-19T16:15:28.626Z,8.33
2023-04-19T16:17:55.447Z,8.37
2023-04-19T16:20:22.153Z,8.35
2023-04-19T16:22:49.122Z,8.21
2023-04-19T16:25:16.542Z,8.24
2023-04-19T16:27:44.578Z,8.40
2023-04-19T16:30:12.609Z,8.38
2023-04-19T16:32:40.612Z,8.36
2023-04-19T16:35:08.103Z,8.32
2023-04-19T16:37:35.340Z,8.40
2023-04-19T16:40:09.305Z,8.36
2023-04-19T16:42:37.465Z,8.18
2023-04-19T16:45:05.195Z,8.08
2023-04-19T16:47:32.810Z,7.94
2023-04-19T16:50:00.551Z,7.84
2023-04-19T16:52:28.743Z,7.82
2023-04-19T16:54:55.519Z,7.77
2023-04-19T16:57:23.853Z,7.87
2023-04-19T16:59:50.787Z,7.82
2023-04-19T17:02:17.835Z,7.85
2023-04-19T17:04:44.789Z,7.78
2023-04-19T17:07:12.209Z,7.80
2023-04-19T17:09:39.060Z,7.70
2023-04-19T17:12:06.106Z,7.63
2023-04-19T17:14:35.155Z,7.48
2023-04-19T17:17:02.188Z,7.48
2023-04-19T17:19:28.905Z,7.43
2023-04-19T17:21:55.625Z,7.28
2023-04-19T17:24:22.470Z,7.30
2023-04-19T17:26:49.933Z,7.26
2023-04-19T17:29:16.860Z,7.13
2023-04-19T17:31:43.824Z,7.04
2023-04-19T17:34:11.091Z,6.90
2023-04-19T17:36:37.890Z,6.90
2023-04-19T17:39:06.686Z,6.72
2023-04-19T17:41:33.976Z,6.53
2023-04-19T17:44:00.688Z,6.46
2023-04-19T17:46:27.404Z,6.41
2023-04-19T17:48:55.470Z,6.29
2023-04-19T17:51:22.168Z,6.28
2023-04-19T17:53:48.872Z,6.16
2023-04-19T17:56:15.535Z,6.10
2023-04-19T17:58:42.300Z,6.09
2023-04-19T18:01:10.405Z,6.07
2023-04-19T18:03:38.078Z,6.02
2023-04-19T18:06:05.028Z,5.92
2023-04-19T18:08:31.756Z,5.83
2023-04-19T18:10:58.699Z,5.69
2023-04-19T18:13:25.450Z,5.62
2023-04-19T18:15:52.269Z,5.50
2023-04-19T18:18:18.966Z,5.53
2023-04-19T18:20:45.643Z,5.44
2023-04-19T18:23:12.388Z,5.45
2023-04-19T18:25:39.695Z,5.31
2023-04-19T18:28:06.786Z,5.32
2023-04-19T18:30:33.863Z,5.37
2023-04-19T18:33:00.637Z,5.31
2023-04-19T18:35:27.397Z,5.27
2023-04-19T18:37:54.166Z,5.18
2023-04-19T18:40:20.921Z,5.21
2023-04-19T18:42:47.610Z,5.18
2023-04-19T18:45:14.711Z,5.24
2023-04-19T18:47:42.075Z,5.22
2023-04-19T18:50:09.426Z,5.15
2023-04-19T18:52:37.103Z,5.13
2023-04-19T18:55:05.741Z,5.06
2023-04-19T18:57:34.895Z,5.03
2023-04-19T19:00:05.403Z,5.08
2023-04-19T19:02:34.008Z,4.96
2023-04-19T19:05:02.239Z,4.81
2023-04-19T19:07:35.469Z,4.89
2023-04-19T19:10:16.140Z,4.79
2023-04-19T19:12:45.850Z,4.77
2023-04-19T19:15:13.560Z,4.80
2023-04-19T19:17:40.772Z,4.90
2023-04-19T19:20:08.291Z,4.87
2023-04-19T19:22:35.036Z,4.74
2023-04-19T19:25:01.826Z,4.59
2023-04-19T19:27:28.560Z,4.51
2023-04-19T19:29:55.352Z,4.39
2023-04-19T19:32:22.163Z,4.32
2023-04-19T19:37:19.468Z,4.30
2023-04-19T19:39:46.590Z,4.31
2023-04-19T19:42:16.669Z,4.47
2023-04-19T19:44:43.499Z,4.33
2023-04-19T19:47:11.065Z,4.21
2023-04-19T19:52:07.805Z,4.23
2023-04-19T19:54:34.535Z,4.30
2023-04-19T19:59:35.008Z,4.53
2023-04-19T20:02:03.634Z,4.36
2023-04-19T20:04:31.997Z,4.43
2023-04-19T20:09:28.428Z,4.30
2023-04-19T20:11:55.170Z,4.37
2023-04-19T20:14:23.654Z,4.47
2023-04-19T20:16:51.041Z,4.41
2023-04-19T20:19:18.396Z,4.41
2023-04-19T20:21:47.049Z,4.45
2023-04-19T20:24:13.768Z,4.46
2023-04-19T20:26:40.557Z,4.30
2023-04-19T20:29:07.882Z,3.95
2023-04-19T20:31:34.676Z,3.84
2023-04-19T20:34:01.454Z,3.68
2023-04-19T20:36:28.394Z,3.54
2023-04-19T20:38:56.985Z,3.46
2023-04-19T20:41:23.673Z,3.36
2023-04-19T20:43:50.425Z,3.37
2023-04-19T20:46:17.138Z,3.33
2023-04-19T20:48:43.868Z,3.33
2023-04-19T20:51:12.685Z,3.24
2023-04-19T20:53:39.414Z,3.32
2023-04-19T20:56:06.150Z,3.28
2023-04-19T20:58:33.840Z,3.18
2023-04-19T21:01:00.756Z,3.19
2023-04-19T21:03:27.729Z,3.17
2023-04-19T21:05:54.512Z,3.20
2023-04-19T21:08:23.164Z,3.26
2023-04-19T21:10:49.957Z,3.06
2023-04-19T21:13:16.634Z,2.92
2023-04-19T21:15:43.375Z,2.93
2023-04-19T21:18:10.136Z,2.99
2023-04-19T21:20:37.836Z,3.12
2023-04-19T21:23:04.948Z,3.10
2023-04-19T21:25:31.714Z,3.01
2023-04-19T21:27:58.392Z,3.06
2023-04-19T21:30:25.761Z,3.07
2023-04-19T21:32:52.957Z,3.26
2023-04-19T21:35:20.038Z,3.16
2023-04-19T21:37:46.766Z,3.21
2023-04-19T21:40:13.850Z,3.35
2023-04-19T21:42:40.746Z,3.26
2023-04-19T21:45:08.000Z,3.29
2023-04-19T21:47:34.837Z,3.31
2023-04-19T21:50:01.631Z,3.24
2023-04-19T21:52:28.442Z,3.19
2023-04-19T21:54:55.476Z,3.24
2023-04-19T21:57:24.720Z,3.07
2023-04-19T21:59:51.628Z,2.94
2023-04-19T22:02:18.536Z,3.04
2023-04-19T22:04:45.843Z,3.00
2023-04-19T22:07:12.791Z,3.04
2023-04-19T22:09:39.632Z,3.16
2023-04-19T22:12:06.665Z,3.22
2023-04-19T22:14:33.345Z,3.23
2023-04-19T22:17:02.985Z,3.23
2023-04-19T22:19:29.742Z,3.21
2023-04-19T22:21:56.969Z,3.21
2023-04-19T22:24:23.961Z,3.23
2023-04-19T22:26:51.127Z,3.15
2023-04-19T22:29:18.116Z,3.07
2023-04-19T22:31:45.383Z,2.94
2023-04-19T22:34:12.337Z,3.05
2023-04-19T22:36:39.136Z,2.95
2023-04-19T22:39:05.947Z,2.99
2023-04-19T22:41:33.136Z,3.01
2023-04-19T22:44:00.510Z,2.91
2023-04-19T22:46:27.620Z,3.05
2023-04-19T22:48:56.116Z,3.05
2023-04-19T22:51:24.257Z,2.93
2023-04-19T22:53:51.271Z,2.93
2023-04-19T22:56:17.980Z,2.91
2023-04-19T22:58:44.799Z,2.91
2023-04-19T23:01:11.661Z,2.84
2023-04-19T23:03:38.594Z,2.97
2023-04-19T23:06:06.006Z,2.92
2023-04-19T23:08:33.501Z,2.77
2023-04-19T23:11:00.477Z,2.63
2023-04-19T23:13:27.269Z,2.48
2023-04-19T23:15:54.664Z,2.48
2023-04-19T23:18:21.637Z,2.50
2023-04-19T23:20:48.281Z,2.51
2023-04-19T23:23:15.074Z,2.51
2023-04-19T23:25:42.435Z,2.52
2023-04-19T23:28:11.154Z,2.46
2023-04-19T23:30:39.469Z,2.51
2023-04-19T23:33:06.516Z,2.48
2023-04-19T23:35:33.256Z,2.56
2023-04-19T23:38:00.062Z,2.69
2023-04-19T23:40:26.861Z,2.66
2023-04-19T23:42:53.716Z,2.65
2023-04-19T23:45:20.511Z,2.28
2023-04-19T23:47:47.269Z,2.20
2023-04-19T23:50:14.391Z,2.02
2023-04-19T23:52:41.148Z,1.76
2023-04-19T23:55:08.293Z,1.64
2023-04-19T23:57:35.921Z,1.60
